sensor_id;sensor_type;location;lat;lon;timestamp;pressure;altitude;pressure_sealevel;temperature;humidity
70902;BME280;58548;47.210;8.618;2023-02-01T00:01:07;94950.56;;;11.72;32.86
70902;BME280;58548;47.210;8.618;2023-02-01T00:03:36;94828.59;;;11.01;32.69
70902;BME280;58548;47.210;8.618;2023-02-01T00:06:02;94936.34;;;11.67;32.54
70902;BME280;58548;47.210;8.618;2023-02-01T00:08:31;94943.78;;;11.55;33.47
70902;BME280;58548;47.210;8.618;2023-02-01T00:11:08;94937.75;;;11.54;33.30
70902;BME280;58548;47.210;8.618;2023-02-01T00:13:40;94818.13;;;10.78;33.39
70902;BME280;58548;47.210;8.618;2023-02-01T00:16:15;94936.94;;;11.54;32.81
70902;BME280;58548;47.210;8.618;2023-02-01T00:18:42;94921.66;;;11.42;33.11
70902;BME280;58548;47.210;8.618;2023-02-01T00:21:13;94919.47;;;11.46;33.49
70902;BME280;58548;47.210;8.618;2023-02-01T00:23:40;94829.69;;;10.84;32.88
70902;BME280;58548;47.210;8.618;2023-02-01T00:26:13;94805.47;;;10.67;33.38
70902;BME280;58548;47.210;8.618;2023-02-01T00:28:39;94937.97;;;11.44;33.31
70902;BME280;58548;47.210;8.618;2023-02-01T00:31:08;94794.19;;;10.66;33.19
70902;BME280;58548;47.210;8.618;2023-02-01T00:33:34;94799.09;;;10.69;33.13
70902;BME280;58548;47.210;8.618;2023-02-01T00:36:05;94897.00;;;11.37;32.76
70902;BME280;58548;47.210;8.618;2023-02-01T00:38:33;94828.22;;;10.90;33.02
70902;BME280;58548;47.210;8.618;2023-02-01T00:41:03;94881.78;;;11.17;33.63
70902;BME280;58548;47.210;8.618;2023-02-01T00:43:33;94902.28;;;11.28;33.68
70902;BME280;58548;47.210;8.618;2023-02-01T00:46:04;94791.00;;;10.56;32.99
70902;BME280;58548;47.210;8.618;2023-02-01T00:48:32;94753.25;;;10.27;33.44
70902;BME280;58548;47.210;8.618;2023-02-01T00:51:04;94891.94;;;11.12;33.05
70902;BME280;58548;47.210;8.618;2023-02-01T00:53:31;94895.88;;;11.08;33.26
70902;BME280;58548;47.210;8.618;2023-02-01T00:55:58;94842.00;;;10.75;33.41
70902;BME280;58548;47.210;8.618;2023-02-01T00:58:24;94893.34;;;10.91;33.18
70902;BME280;58548;47.210;8.618;2023-02-01T01:03:51;94769.41;;;9.91;33.31
70902;BME280;58548;47.210;8.618;2023-02-01T01:06:26;94747.94;;;9.64;33.81
70902;BME280;58548;47.210;8.618;2023-02-01T01:08:53;94744.56;;;9.47;34.00
70902;BME280;58548;47.210;8.618;2023-02-01T01:11:30;94877.25;;;10.23;33.89
70902;BME280;58548;47.210;8.618;2023-02-01T01:13:58;94875.69;;;10.05;34.75
70902;BME280;58548;47.210;8.618;2023-02-01T01:16:27;94818.69;;;9.69;35.49
70902;BME280;58548;47.210;8.618;2023-02-01T01:18:54;94755.84;;;9.23;35.89
70902;BME280;58548;47.210;8.618;2023-02-01T01:21:20;94877.03;;;9.93;36.55
70902;BME280;58548;47.210;8.618;2023-02-01T01:23:49;94859.75;;;9.75;36.30
70902;BME280;58548;47.210;8.618;2023-02-01T01:26:17;94875.56;;;9.74;36.96
70902;BME280;58548;47.210;8.618;2023-02-01T01:28:48;94872.47;;;9.62;36.49
70902;BME280;58548;47.210;8.618;2023-02-01T01:31:17;94866.28;;;9.46;36.96
70902;BME280;58548;47.210;8.618;2023-02-01T01:33:43;94750.16;;;8.69;36.70
70902;BME280;58548;47.210;8.618;2023-02-01T01:36:12;94858.13;;;9.33;37.19
70902;BME280;58548;47.210;8.618;2023-02-01T01:38:41;94746.56;;;8.54;36.92
70902;BME280;58548;47.210;8.618;2023-02-01T01:41:13;94766.91;;;8.67;36.69
70902;BME280;58548;47.210;8.618;2023-02-01T01:46:23;94859.75;;;9.09;37.01
70902;BME280;58548;47.210;8.618;2023-02-01T01:49:16;94863.34;;;9.08;36.78
70902;BME280;58548;47.210;8.618;2023-02-01T01:51:51;94856.13;;;8.94;37.37
70902;BME280;58548;47.210;8.618;2023-02-01T01:54:27;94852.25;;;8.89;37.79
70902;BME280;58548;47.210;8.618;2023-02-01T01:57:20;94703.88;;;7.87;37.85
70902;BME280;58548;47.210;8.618;2023-02-01T01:59:56;94824.16;;;8.58;38.40
70902;BME280;58548;47.210;8.618;2023-02-01T02:02:30;94840.78;;;8.66;38.36
70902;BME280;58548;47.210;8.618;2023-02-01T02:04:58;94715.91;;;7.88;38.72
70902;BME280;58548;47.210;8.618;2023-02-01T02:07:30;94706.16;;;7.82;38.44
70902;BME280;58548;47.210;8.618;2023-02-01T02:10:00;94698.16;;;7.75;38.89
70902;BME280;58548;47.210;8.618;2023-02-01T02:12:28;94845.16;;;8.57;38.83
70902;BME280;58548;47.210;8.618;2023-02-01T02:14:57;94783.03;;;8.19;39.16
70902;BME280;58548;47.210;8.618;2023-02-01T02:23:18;94846.56;;;8.43;39.03
70902;BME280;58548;47.210;8.618;2023-02-01T02:37:04;94861.38;;;8.16;39.47
70902;BME280;58548;47.210;8.618;2023-02-01T02:42:49;94863.28;;;8.06;39.27
70902;BME280;58548;47.210;8.618;2023-02-01T02:48:52;94842.66;;;7.78;39.41
70902;BME280;58548;47.210;8.618;2023-02-01T02:51:31;94714.13;;;6.93;39.51
70902;BME280;58548;47.210;8.618;2023-02-01T02:54:23;94872.25;;;7.85;39.07
70902;BME280;58548;47.210;8.618;2023-02-01T02:57:19;94870.97;;;7.81;39.61
70902;BME280;58548;47.210;8.618;2023-02-01T03:00:14;94744.63;;;6.91;39.55
70902;BME280;58548;47.210;8.618;2023-02-01T03:03:00;94867.25;;;7.65;39.67
70902;BME280;58548;47.210;8.618;2023-02-01T03:05:48;94871.16;;;7.61;39.00
70902;BME280;58548;47.210;8.618;2023-02-01T03:08:30;94873.38;;;7.56;39.45
70902;BME280;58548;47.210;8.618;2023-02-01T03:11:04;94740.03;;;6.67;39.35
70902;BME280;58548;47.210;8.618;2023-02-01T03:13:53;94831.88;;;7.20;39.60
70902;BME280;58548;47.210;8.618;2023-02-01T03:16:24;94885.13;;;7.42;39.53
70902;BME280;58548;47.210;8.618;2023-02-01T03:21:57;94855.88;;;7.22;39.63
70902;BME280;58548;47.210;8.618;2023-02-01T03:24:25;94876.16;;;7.36;39.96
70902;BME280;58548;47.210;8.618;2023-02-01T03:29:47;94877.72;;;7.29;40.06
70902;BME280;58548;47.210;8.618;2023-02-01T03:32:15;94873.94;;;7.23;40.12
70902;BME280;58548;47.210;8.618;2023-02-01T03:34:43;94868.56;;;7.25;40.09
70902;BME280;58548;47.210;8.618;2023-02-01T03:37:20;94846.19;;;7.06;40.30
70902;BME280;58548;47.210;8.618;2023-02-01T03:42:48;94721.66;;;6.42;40.05
70902;BME280;58548;47.210;8.618;2023-02-01T03:45:18;94869.16;;;7.37;40.56
70902;BME280;58548;47.210;8.618;2023-02-01T03:47:56;94873.84;;;7.33;40.32
70902;BME280;58548;47.210;8.618;2023-02-01T03:50:31;94753.81;;;6.67;40.24
70902;BME280;58548;47.210;8.618;2023-02-01T03:53:06;94852.47;;;7.39;40.63
70902;BME280;58548;47.210;8.618;2023-02-01T03:55:37;94861.34;;;7.55;40.54
70902;BME280;58548;47.210;8.618;2023-02-01T03:58:16;94752.03;;;7.04;40.03
70902;BME280;58548;47.210;8.618;2023-02-01T04:00:55;94867.13;;;7.93;40.42
70902;BME280;58548;47.210;8.618;2023-02-01T04:03:22;94881.16;;;8.00;40.51
70902;BME280;58548;47.210;8.618;2023-02-01T04:05:49;94859.16;;;7.95;40.33
70902;BME280;58548;47.210;8.618;2023-02-01T04:08:20;94683.34;;;6.98;39.78
70902;BME280;58548;47.210;8.618;2023-02-01T04:10:46;94851.59;;;8.10;39.88
70902;BME280;58548;47.210;8.618;2023-02-01T04:13:14;94800.63;;;7.91;39.75
70902;BME280;58548;47.210;8.618;2023-02-01T04:15:40;94709.19;;;7.34;39.78
70902;BME280;58548;47.210;8.618;2023-02-01T04:18:08;94831.13;;;8.15;39.83
70902;BME280;58548;47.210;8.618;2023-02-01T04:20:34;94831.19;;;8.32;39.32
70902;BME280;58548;47.210;8.618;2023-02-01T04:23:02;94721.38;;;7.68;39.53
70902;BME280;58548;47.210;8.618;2023-02-01T04:25:29;94712.91;;;7.66;39.21
70902;BME280;58548;47.210;8.618;2023-02-01T04:27:55;94857.66;;;8.53;39.27
70902;BME280;58548;47.210;8.618;2023-02-01T04:30:21;94861.91;;;8.54;39.80
70902;BME280;58548;47.210;8.618;2023-02-01T04:32:49;94738.00;;;7.76;39.39
70902;BME280;58548;47.210;8.618;2023-02-01T04:35:15;94737.03;;;7.77;39.22
70902;BME280;58548;47.210;8.618;2023-02-01T04:37:43;94856.34;;;8.49;39.57
70902;BME280;58548;47.210;8.618;2023-02-01T04:40:09;94860.22;;;8.45;39.52
70902;BME280;58548;47.210;8.618;2023-02-01T04:42:40;94886.28;;;8.53;39.39
70902;BME280;58548;47.210;8.618;2023-02-01T04:45:07;94787.16;;;7.95;39.66
70902;BME280;58548;47.210;8.618;2023-02-01T04:47:32;94756.22;;;7.84;39.78
70902;BME280;58548;47.210;8.618;2023-02-01T04:49:58;94853.13;;;8.55;39.62
70902;BME280;58548;47.210;8.618;2023-02-01T04:52:24;94881.34;;;8.77;40.17
70902;BME280;58548;47.210;8.618;2023-02-01T04:54:50;94766.72;;;8.09;39.89
70902;BME280;58548;47.210;8.618;2023-02-01T04:57:19;94909.25;;;9.01;40.27
70902;BME280;58548;47.210;8.618;2023-02-01T04:59:45;94899.16;;;9.06;39.78
70902;BME280;58548;47.210;8.618;2023-02-01T05:02:11;94766.31;;;8.30;39.75
70902;BME280;58548;47.210;8.618;2023-02-01T05:04:39;94920.06;;;9.31;39.77
70902;BME280;58548;47.210;8.618;2023-02-01T05:07:07;94920.72;;;9.41;39.42
70902;BME280;58548;47.210;8.618;2023-02-01T05:09:33;94928.56;;;9.49;39.54
70902;BME280;58548;47.210;8.618;2023-02-01T05:11:59;94932.78;;;9.59;39.40
70902;BME280;58548;47.210;8.618;2023-02-01T05:14:43;94804.69;;;8.87;39.22
70902;BME280;58548;47.210;8.618;2023-02-01T05:17:11;94921.53;;;9.66;39.18
70902;BME280;58548;47.210;8.618;2023-02-01T05:19:37;94846.25;;;9.30;39.26
70902;BME280;58548;47.210;8.618;2023-02-01T05:22:03;94932.28;;;10.05;38.97
70902;BME280;58548;47.210;8.618;2023-02-01T05:24:29;94927.88;;;10.05;38.99
70902;BME280;58548;47.210;8.618;2023-02-01T05:26:58;94786.78;;;9.17;38.83
70902;BME280;58548;47.210;8.618;2023-02-01T05:29:24;94934.06;;;10.13;39.10
70902;BME280;58548;47.210;8.618;2023-02-01T05:31:50;94925.44;;;10.04;38.88
70902;BME280;58548;47.210;8.618;2023-02-01T05:34:16;94811.22;;;9.33;38.06
70902;BME280;58548;47.210;8.618;2023-02-01T05:36:44;94935.34;;;10.25;38.42
70902;BME280;58548;47.210;8.618;2023-02-01T05:39:10;94938.28;;;10.22;38.32
70902;BME280;58548;47.210;8.618;2023-02-01T05:41:36;94803.72;;;9.46;38.08
70902;BME280;58548;47.210;8.618;2023-02-01T05:44:04;94805.03;;;9.50;38.12
70902;BME280;58548;47.210;8.618;2023-02-01T05:46:35;94940.22;;;10.36;37.91
70902;BME280;58548;47.210;8.618;2023-02-01T05:49:01;94932.22;;;10.38;37.79
70902;BME280;58548;47.210;8.618;2023-02-01T05:51:31;94932.38;;;10.45;37.37
70902;BME280;58548;47.210;8.618;2023-02-01T05:53:57;94924.22;;;10.48;37.19
70902;BME280;58548;47.210;8.618;2023-02-01T05:56:23;94897.94;;;10.49;36.87
70902;BME280;58548;47.210;8.618;2023-02-01T05:58:50;94831.00;;;10.08;36.52
70902;BME280;58548;47.210;8.618;2023-02-01T06:01:16;94795.50;;;9.91;36.22
70902;BME280;58548;47.210;8.618;2023-02-01T06:03:46;94906.84;;;10.71;36.01
70902;BME280;58548;47.210;8.618;2023-02-01T06:06:12;94904.69;;;10.75;36.04
70902;BME280;58548;47.210;8.618;2023-02-01T06:08:38;94928.69;;;10.79;36.08
70902;BME280;58548;47.210;8.618;2023-02-01T06:11:08;94825.91;;;10.15;36.19
70902;BME280;58548;47.210;8.618;2023-02-01T06:13:34;94929.50;;;10.79;36.21
70902;BME280;58548;47.210;8.618;2023-02-01T06:16:01;94933.41;;;10.83;35.97
70902;BME280;58548;47.210;8.618;2023-02-01T06:18:27;94915.66;;;10.70;35.96
70902;BME280;58548;47.210;8.618;2023-02-01T06:20:56;94943.34;;;10.88;35.93
70902;BME280;58548;47.210;8.618;2023-02-01T06:23:23;94809.78;;;10.03;36.17
70902;BME280;58548;47.210;8.618;2023-02-01T06:25:51;94812.59;;;10.02;35.84
70902;BME280;58548;47.210;8.618;2023-02-01T06:28:20;94946.28;;;10.85;36.15
70902;BME280;58548;47.210;8.618;2023-02-01T06:30:46;94872.34;;;10.36;36.13
70902;BME280;58548;47.210;8.618;2023-02-01T06:33:13;94846.28;;;10.20;35.83
70902;BME280;58548;47.210;8.618;2023-02-01T06:35:41;94928.97;;;10.92;35.75
70902;BME280;58548;47.210;8.618;2023-02-01T06:38:13;94926.66;;;10.97;35.29
70902;BME280;58548;47.210;8.618;2023-02-01T06:40:42;94948.75;;;11.18;34.44
70902;BME280;58548;47.210;8.618;2023-02-01T06:43:09;94932.31;;;11.09;34.92
70902;BME280;58548;47.210;8.618;2023-02-01T06:45:37;94962.81;;;11.17;34.39
70902;BME280;58548;47.210;8.618;2023-02-01T06:48:04;94826.97;;;10.37;34.91
70902;BME280;58548;47.210;8.618;2023-02-01T06:50:30;94936.84;;;11.15;34.76
70902;BME280;58548;47.210;8.618;2023-02-01T06:52:56;94804.03;;;10.24;35.19
70902;BME280;58548;47.210;8.618;2023-02-01T06:55:22;94932.97;;;11.11;34.55
70902;BME280;58548;47.210;8.618;2023-02-01T06:57:49;94825.66;;;10.41;34.86
70902;BME280;58548;47.210;8.618;2023-02-01T07:00:18;94961.44;;;11.29;35.26
70902;BME280;58548;47.210;8.618;2023-02-01T07:02:47;94841.09;;;10.60;35.13
70902;BME280;58548;47.210;8.618;2023-02-01T07:05:15;94848.75;;;10.61;34.99
70902;BME280;58548;47.210;8.618;2023-02-01T07:07:42;94950.44;;;11.34;34.74
70902;BME280;58548;47.210;8.618;2023-02-01T07:10:09;94844.81;;;10.65;34.90
70902;BME280;58548;47.210;8.618;2023-02-01T07:12:35;94913.25;;;11.00;35.33
70902;BME280;58548;47.210;8.618;2023-02-01T07:15:04;94940.94;;;11.18;35.28
70902;BME280;58548;47.210;8.618;2023-02-01T07:17:33;94946.78;;;11.20;35.93
70902;BME280;58548;47.210;8.618;2023-02-01T07:19:59;94754.72;;;9.90;35.53
70902;BME280;58548;47.210;8.618;2023-02-01T07:22:29;94987.38;;;11.39;35.64
70902;BME280;58548;47.210;8.618;2023-02-01T07:24:55;94889.19;;;10.74;35.58
70902;BME280;58548;47.210;8.618;2023-02-01T07:27:24;94998.66;;;11.40;35.66
70902;BME280;58548;47.210;8.618;2023-02-01T07:29:54;94954.34;;;11.15;35.53
70902;BME280;58548;47.210;8.618;2023-02-01T07:32:23;94990.16;;;11.38;34.62
70902;BME280;58548;47.210;8.618;2023-02-01T07:34:51;95021.81;;;11.51;35.67
70902;BME280;58548;47.210;8.618;2023-02-01T07:37:19;95018.88;;;11.46;35.46
70902;BME280;58548;47.210;8.618;2023-02-01T07:39:45;95008.63;;;11.36;35.18
70902;BME280;58548;47.210;8.618;2023-02-01T07:42:14;94920.88;;;10.70;35.47
70902;BME280;58548;47.210;8.618;2023-02-01T07:44:40;94944.50;;;10.85;35.36
70902;BME280;58548;47.210;8.618;2023-02-01T07:47:05;94911.59;;;10.68;34.81
70902;BME280;58548;47.210;8.618;2023-02-01T07:49:34;94824.78;;;10.09;35.61
70902;BME280;58548;47.210;8.618;2023-02-01T07:51:59;95032.94;;;11.45;35.37
70902;BME280;58548;47.210;8.618;2023-02-01T07:54:28;95039.81;;;11.46;35.17
70902;BME280;58548;47.210;8.618;2023-02-01T07:56:53;95050.25;;;11.46;34.77
70902;BME280;58548;47.210;8.618;2023-02-01T07:59:22;94922.81;;;10.77;34.95
70902;BME280;58548;47.210;8.618;2023-02-01T08:01:51;95031.91;;;11.54;34.99
70902;BME280;58548;47.210;8.618;2023-02-01T08:04:17;95029.75;;;11.58;34.93
70902;BME280;58548;47.210;8.618;2023-02-01T08:06:42;95012.31;;;11.50;35.32
70902;BME280;58548;47.210;8.618;2023-02-01T08:09:08;95036.28;;;11.62;35.54
70902;BME280;58548;47.210;8.618;2023-02-01T08:11:36;95026.34;;;11.57;34.98
70902;BME280;58548;47.210;8.618;2023-02-01T08:14:04;95044.00;;;11.64;34.90
70902;BME280;58548;47.210;8.618;2023-02-01T08:16:30;94914.56;;;10.96;35.02
70902;BME280;58548;47.210;8.618;2023-02-01T08:18:56;94931.47;;;11.09;34.83
70902;BME280;58548;47.210;8.618;2023-02-01T08:21:29;94933.75;;;11.12;34.45
70902;BME280;58548;47.210;8.618;2023-02-01T08:24:09;94929.19;;;11.14;34.90
70902;BME280;58548;47.210;8.618;2023-02-01T08:26:40;95039.88;;;11.92;34.07
70902;BME280;58548;47.210;8.618;2023-02-01T08:29:09;95033.28;;;11.97;33.70
70902;BME280;58548;47.210;8.618;2023-02-01T08:31:37;95017.28;;;11.91;33.45
70902;BME280;58548;47.210;8.618;2023-02-01T08:34:11;94868.09;;;11.07;33.59
70902;BME280;58548;47.210;8.618;2023-02-01T08:36:38;94897.75;;;11.22;33.58
70902;BME280;58548;47.210;8.618;2023-02-01T08:39:10;95027.50;;;12.10;33.90
70902;BME280;58548;47.210;8.618;2023-02-01T08:41:40;95024.69;;;12.11;33.89
70902;BME280;58548;47.210;8.618;2023-02-01T08:44:12;94960.78;;;11.82;33.54
70902;BME280;58548;47.210;8.618;2023-02-01T08:46:38;94993.72;;;12.00;33.14
70902;BME280;58548;47.210;8.618;2023-02-01T08:49:06;95011.84;;;12.25;33.84
70902;BME280;58548;47.210;8.618;2023-02-01T08:51:34;94993.31;;;12.26;33.10
70902;BME280;58548;47.210;8.618;2023-02-01T08:54:00;94983.56;;;12.20;33.17
70902;BME280;58548;47.210;8.618;2023-02-01T08:56:31;95001.47;;;12.31;32.52
70902;BME280;58548;47.210;8.618;2023-02-01T08:58:56;95013.47;;;12.26;33.05
70902;BME280;58548;47.210;8.618;2023-02-01T09:01:22;95004.53;;;12.35;33.06
70902;BME280;58548;47.210;8.618;2023-02-01T09:03:53;94881.13;;;11.61;33.20
70902;BME280;58548;47.210;8.618;2023-02-01T09:06:18;94998.75;;;12.40;33.10
70902;BME280;58548;47.210;8.618;2023-02-01T09:08:49;95010.78;;;12.34;33.38
70902;BME280;58548;47.210;8.618;2023-02-01T09:11:17;95030.31;;;12.46;33.23
70902;BME280;58548;47.210;8.618;2023-02-01T09:13:46;95019.84;;;12.46;32.78
70902;BME280;58548;47.210;8.618;2023-02-01T09:16:13;95025.44;;;12.43;32.60
70902;BME280;58548;47.210;8.618;2023-02-01T09:18:41;95024.34;;;12.52;33.18
70902;BME280;58548;47.210;8.618;2023-02-01T09:21:10;95007.34;;;12.33;32.75
70902;BME280;58548;47.210;8.618;2023-02-01T09:23:38;94902.06;;;11.61;32.74
70902;BME280;58548;47.210;8.618;2023-02-01T09:26:06;94894.84;;;11.64;32.59
70902;BME280;58548;47.210;8.618;2023-02-01T09:28:35;95016.25;;;12.47;32.85
70902;BME280;58548;47.210;8.618;2023-02-01T09:31:02;95007.53;;;12.47;32.68
70902;BME280;58548;47.210;8.618;2023-02-01T09:33:29;94918.31;;;11.95;32.25
70902;BME280;58548;47.210;8.618;2023-02-01T09:36:00;94999.78;;;12.54;32.06
70902;BME280;58548;47.210;8.618;2023-02-01T09:38:27;95001.41;;;12.55;32.17
70902;BME280;58548;47.210;8.618;2023-02-01T09:40:57;94894.72;;;11.80;32.65
70902;BME280;58548;47.210;8.618;2023-02-01T09:43:46;95010.38;;;12.60;32.72
70902;BME280;58548;47.210;8.618;2023-02-01T09:46:32;94881.44;;;11.82;32.17
70902;BME280;58548;47.210;8.618;2023-02-01T09:49:05;95019.41;;;12.73;32.14
70902;BME280;58548;47.210;8.618;2023-02-01T09:51:42;94916.56;;;11.87;32.35
70902;BME280;58548;47.210;8.618;2023-02-01T09:54:22;95045.53;;;12.66;32.52
70902;BME280;58548;47.210;8.618;2023-02-01T09:56:56;95037.31;;;12.84;32.14
70902;BME280;58548;47.210;8.618;2023-02-01T09:59:30;95028.72;;;12.75;32.87
70902;BME280;58548;47.210;8.618;2023-02-01T10:02:02;94926.50;;;12.15;32.64
70902;BME280;58548;47.210;8.618;2023-02-01T10:04:36;95024.13;;;12.92;32.34
70902;BME280;58548;47.210;8.618;2023-02-01T10:07:27;95014.81;;;12.90;32.11
70902;BME280;58548;47.210;8.618;2023-02-01T10:12:50;95005.69;;;12.86;32.85
70902;BME280;58548;47.210;8.618;2023-02-01T10:18:15;95005.84;;;12.84;32.55
70902;BME280;58548;47.210;8.618;2023-02-01T10:27:22;95016.53;;;13.12;32.74
70902;BME280;58548;47.210;8.618;2023-02-01T10:30:05;94963.84;;;12.77;32.32
70902;BME280;58548;47.210;8.618;2023-02-01T10:32:39;94996.91;;;13.08;32.50
70902;BME280;58548;47.210;8.618;2023-02-01T10:35:20;94908.00;;;12.62;32.04
70902;BME280;58548;47.210;8.618;2023-02-01T10:37:50;95020.13;;;13.41;32.30
70902;BME280;58548;47.210;8.618;2023-02-01T10:40:20;95030.16;;;13.53;32.35
70902;BME280;58548;47.210;8.618;2023-02-01T10:43:01;95014.50;;;13.60;31.63
70902;BME280;58548;47.210;8.618;2023-02-01T10:45:33;94926.63;;;13.04;31.81
70902;BME280;58548;47.210;8.618;2023-02-01T10:48:03;94994.28;;;13.60;31.38
70902;BME280;58548;47.210;8.618;2023-02-01T10:50:51;94965.78;;;13.57;31.80
70902;BME280;58548;47.210;8.618;2023-02-01T10:56:11;94873.78;;;13.00;31.67
70902;BME280;58548;47.210;8.618;2023-02-01T10:58:46;94990.56;;;13.69;31.56
70902;BME280;58548;47.210;8.618;2023-02-01T11:01:37;94993.19;;;13.69;32.22
70902;BME280;58548;47.210;8.618;2023-02-01T11:04:10;94884.13;;;13.23;31.45
70902;BME280;58548;47.210;8.618;2023-02-01T11:09:41;94971.97;;;14.14;31.39
70902;BME280;58548;47.210;8.618;2023-02-01T11:12:25;94990.22;;;14.44;31.17
70902;BME280;58548;47.210;8.618;2023-02-01T11:15:20;94996.69;;;14.70;30.88
70902;BME280;58548;47.210;8.618;2023-02-01T11:17:49;94985.75;;;14.73;30.31
70902;BME280;58548;47.210;8.618;2023-02-01T11:20:39;94860.47;;;14.17;30.53
70902;BME280;58548;47.210;8.618;2023-02-01T11:23:47;94971.97;;;15.00;30.18
70902;BME280;58548;47.210;8.618;2023-02-01T11:26:33;94972.66;;;14.80;30.13
70902;BME280;58548;47.210;8.618;2023-02-01T11:29:09;94976.72;;;14.83;30.47
70902;BME280;58548;47.210;8.618;2023-02-01T11:31:38;94888.31;;;14.40;30.07
70902;BME280;58548;47.210;8.618;2023-02-01T11:34:11;94950.50;;;14.68;30.22
70902;BME280;58548;47.210;8.618;2023-02-01T11:36:40;94960.41;;;14.66;30.39
70902;BME280;58548;47.210;8.618;2023-02-01T11:42:15;94961.81;;;14.97;30.68
70902;BME280;58548;47.210;8.618;2023-02-01T11:44:48;94947.97;;;15.30;30.80
70902;BME280;58548;47.210;8.618;2023-02-01T11:47:31;94960.91;;;16.13;29.64
70902;BME280;58548;47.210;8.618;2023-02-01T11:50:15;94837.69;;;16.16;28.69
70902;BME280;58548;47.210;8.618;2023-02-01T12:31:20;94881.22;;;21.86;19.95
70902;BME280;58548;47.210;8.618;2023-02-01T12:40:25;94866.66;;;20.13;21.93
70902;BME280;58548;47.210;8.618;2023-02-01T12:43:07;94761.41;;;19.11;22.51
70902;BME280;58548;47.210;8.618;2023-02-01T12:45:45;94733.63;;;18.60;23.05
70902;BME280;58548;47.210;8.618;2023-02-01T12:48:23;94866.41;;;19.48;22.54
70902;BME280;58548;47.210;8.618;2023-02-01T12:50:57;94853.03;;;19.12;23.21
70902;BME280;58548;47.210;8.618;2023-02-01T12:53:37;94856.22;;;19.03;23.22
70902;BME280;58548;47.210;8.618;2023-02-01T12:56:16;94861.53;;;18.84;23.44
70902;BME280;58548;47.210;8.618;2023-02-01T12:58:51;94873.34;;;18.44;24.13
70902;BME280;58548;47.210;8.618;2023-02-01T13:01:22;94875.53;;;18.29;24.00
70902;BME280;58548;47.210;8.618;2023-02-01T13:04:08;94741.84;;;17.26;24.04
70902;BME280;58548;47.210;8.618;2023-02-01T13:07:03;94874.00;;;17.63;24.26
70902;BME280;58548;47.210;8.618;2023-02-01T13:09:51;94872.56;;;17.36;25.28
70902;BME280;58548;47.210;8.618;2023-02-01T13:12:27;94847.94;;;17.10;25.28
70902;BME280;58548;47.210;8.618;2023-02-01T13:15:19;94855.50;;;16.93;25.94
70902;BME280;58548;47.210;8.618;2023-02-01T13:17:51;94857.03;;;16.68;26.19
70902;BME280;58548;47.210;8.618;2023-02-01T13:20:46;94819.81;;;16.31;26.75
70902;BME280;58548;47.210;8.618;2023-02-01T13:23:27;94840.47;;;16.34;26.57
70902;BME280;58548;47.210;8.618;2023-02-01T13:26:00;94829.41;;;16.05;27.04
70902;BME280;58548;47.210;8.618;2023-02-01T13:31:15;94858.38;;;15.92;27.25
70902;BME280;58548;47.210;8.618;2023-02-01T13:42:26;94738.56;;;14.60;27.74
70902;BME280;58548;47.210;8.618;2023-02-01T13:44:59;94756.25;;;14.86;27.32
70902;BME280;58548;47.210;8.618;2023-02-01T13:47:33;94730.28;;;14.63;26.97
70902;BME280;58548;47.210;8.618;2023-02-01T13:50:29;94757.84;;;14.81;27.75
70902;BME280;58548;47.210;8.618;2023-02-01T14:16:42;94718.94;;;14.49;27.59
70902;BME280;58548;47.210;8.618;2023-02-01T14:21:59;94828.78;;;15.70;27.13
70902;BME280;58548;47.210;8.618;2023-02-01T14:24:33;94855.72;;;15.51;27.51
70902;BME280;58548;47.210;8.618;2023-02-01T14:27:25;94844.56;;;15.49;27.13
70902;BME280;58548;47.210;8.618;2023-02-01T14:29:57;94729.84;;;14.53;27.84
70902;BME280;58548;47.210;8.618;2023-02-01T14:35:02;94801.41;;;14.97;28.17
70902;BME280;58548;47.210;8.618;2023-02-01T14:37:34;94866.00;;;15.19;28.25
70902;BME280;58548;47.210;8.618;2023-02-01T14:40:05;94753.09;;;14.49;28.41
70902;BME280;58548;47.210;8.618;2023-02-01T14:42:50;94876.75;;;15.31;28.30
70902;BME280;58548;47.210;8.618;2023-02-01T14:58:56;94893.22;;;14.91;29.73
70902;BME280;58548;47.210;8.618;2023-02-01T15:01:27;94899.47;;;14.84;30.27
70902;BME280;58548;47.210;8.618;2023-02-01T15:09:14;94922.28;;;14.76;30.05
70902;BME280;58548;47.210;8.618;2023-02-01T15:11:58;94913.81;;;14.81;29.84
70902;BME280;58548;47.210;8.618;2023-02-01T15:14:29;94788.63;;;13.68;30.21
70902;BME280;58548;47.210;8.618;2023-02-01T15:16:57;94894.28;;;14.27;30.60
70902;BME280;58548;47.210;8.618;2023-02-01T15:19:25;94918.97;;;14.32;30.37
70902;BME280;58548;47.210;8.618;2023-02-01T15:21:55;94924.66;;;14.36;30.67
70902;BME280;58548;47.210;8.618;2023-02-01T15:24:22;94934.13;;;14.30;30.51
70902;BME280;58548;47.210;8.618;2023-02-01T15:26:53;94939.38;;;14.30;30.47
70902;BME280;58548;47.210;8.618;2023-02-01T15:29:24;94930.56;;;14.16;30.67
70902;BME280;58548;47.210;8.618;2023-02-01T15:31:53;94943.66;;;14.10;30.68
70902;BME280;58548;47.210;8.618;2023-02-01T15:34:21;94914.81;;;13.88;30.38
70902;BME280;58548;47.210;8.618;2023-02-01T15:36:47;94919.00;;;13.82;30.37
70902;BME280;58548;47.210;8.618;2023-02-01T15:39:23;94930.44;;;13.96;30.39
70902;BME280;58548;47.210;8.618;2023-02-01T15:42:12;94803.66;;;13.09;30.15
70902;BME280;58548;47.210;8.618;2023-02-01T15:44:46;94814.34;;;12.86;30.18
70902;BME280;58548;47.210;8.618;2023-02-01T15:47:20;94913.06;;;13.52;30.25
70902;BME280;58548;47.210;8.618;2023-02-01T15:49:56;94897.69;;;13.12;30.69
70902;BME280;58548;47.210;8.618;2023-02-01T15:52:39;94915.03;;;13.28;30.50
70902;BME280;58548;47.210;8.618;2023-02-01T15:55:36;94937.31;;;13.54;30.23
70902;BME280;58548;47.210;8.618;2023-02-01T15:58:28;94933.69;;;13.18;30.40
70902;BME280;58548;47.210;8.618;2023-02-01T16:01:05;94933.13;;;13.23;30.30
70902;BME280;58548;47.210;8.618;2023-02-01T16:03:40;94948.59;;;13.18;30.42
70902;BME280;58548;47.210;8.618;2023-02-01T16:08:55;94895.25;;;12.59;30.35
70902;BME280;58548;47.210;8.618;2023-02-01T16:13:57;94948.53;;;12.96;30.15
70902;BME280;58548;47.210;8.618;2023-02-01T16:16:25;94971.78;;;12.99;30.65